^^
Your Local Weather - Clay, NY Station Historical Data
Daily Summary for February 7, 2018 Units:  Both    English   Metric
« Previous Day
Next Day »
Daily Weekly Monthly Yearly Custom
  High: Low: Average:
Temperature: 23.5 °F /  -4.7 °C 5.9 °F /  -14.5 °C 17.7 °F /  -7.9 °C
Dew Point: 21.3 °F /  -5.9 °C 2.1 °F /  -16.6 °C 14.6 °F /  -9.7 °C
Humidity: 91% 79% 88%
Wind Speed: 6.0mph /  9.7km/h - 1.7mph /  2.7km/h
Wind Gust: 11.0mph /  17.7km/h - -
Wind- - SSE
Pressure: 30.49 in /  1032.4 hPa 29.96 in /  1014.4 hPa -
Precipitation: 0.00 in /  0 mm    
Historical Graphs
 
 
Tabular Data for February 7, 2018
Time Temperature Dew Point Pressure Wind Wind Speed Wind Gust Humidity Rainfall Rate (Hourly) solar
00:04 8.9 °F /  -12.8 °C 4.8 °F /  -15.1 °C 30.49in /  1032.4hPa Calm     83% 0.00in /  0mm 0 W/m2
00:10 8.6 °F /  -13 °C 4.5 °F /  -15.3 °C 30.49in /  1032.4hPa Calm     83% 0.00in /  0mm 0 W/m2
00:16 8.5 °F /  -13.1 °C 4.4 °F /  -15.3 °C 30.49in /  1032.4hPa Calm     83% 0.00in /  0mm 0 W/m2
00:22 8.4 °F /  -13.1 °C 4.3 °F /  -15.4 °C 30.49in /  1032.4hPa Calm     83% 0.00in /  0mm 0 W/m2
00:28 8.3 °F /  -13.2 °C 4.5 °F /  -15.3 °C 30.49in /  1032.4hPa Calm     84% 0.00in /  0mm 0 W/m2
00:34 8.1 °F /  -13.3 °C 4.3 °F /  -15.4 °C 30.49in /  1032.4hPa Calm     84% 0.00in /  0mm 0 W/m2
00:40 7.8 °F /  -13.4 °C 4.0 °F /  -15.6 °C 30.49in /  1032.4hPa Calm     84% 0.00in /  0mm 0 W/m2
00:46 7.5 °F /  -13.6 °C 3.7 °F /  -15.7 °C 30.49in /  1032.4hPa Calm     84% 0.00in /  0mm 0 W/m2
00:52 7.2 °F /  -13.8 °C 3.4 °F /  -15.9 °C 30.49in /  1032.4hPa Calm     84% 0.00in /  0mm 0 W/m2
00:58 6.9 °F /  -13.9 °C 3.1 °F /  -16.1 °C 30.48in /  1032.1hPa Calm     84% 0.00in /  0mm 0 W/m2
01:04 6.8 °F /  -14 °C 3.0 °F /  -16.1 °C 30.47in /  1031.7hPa Calm     84% 0.00in /  0mm 0 W/m2
01:10 6.7 °F /  -14.1 °C 2.9 °F /  -16.2 °C 30.47in /  1031.7hPa Calm     84% 0.00in /  0mm 0 W/m2
01:16 6.3 °F /  -14.3 °C 2.5 °F /  -16.4 °C 30.47in /  1031.7hPa Calm     84% 0.00in /  0mm 0 W/m2
01:22 5.9 °F /  -14.5 °C 2.1 °F /  -16.6 °C 30.47in /  1031.7hPa Calm     84% 0.00in /  0mm 0 W/m2
01:28 6.0 °F /  -14.4 °C 2.2 °F /  -16.6 °C 30.46in /  1031.4hPa Calm     84% 0.00in /  0mm 0 W/m2
01:34 6.4 °F /  -14.2 °C 2.9 °F /  -16.2 °C 30.46in /  1031.4hPa Calm     85% 0.00in /  0mm 0 W/m2
01:40 6.9 °F /  -13.9 °C 3.3 °F /  -15.9 °C 30.46in /  1031.4hPa Calm     85% 0.00in /  0mm 0 W/m2
01:46 7.5 °F /  -13.6 °C 4.2 °F /  -15.4 °C 30.45in /  1031hPa Calm     86% 0.00in /  0mm 0 W/m2
01:52 8.1 °F /  -13.3 °C 4.8 °F /  -15.1 °C 30.45in /  1031hPa Calm     86% 0.00in /  0mm 0 W/m2
01:58 8.3 °F /  -13.2 °C 5.0 °F /  -15 °C 30.45in /  1031hPa Calm     86% 0.00in /  0mm 0 W/m2
02:04 8.5 °F /  -13.1 °C 5.2 °F /  -14.9 °C 30.44in /  1030.7hPa Calm     86% 0.00in /  0mm 0 W/m2
02:10 8.8 °F /  -12.9 °C 5.5 °F /  -14.7 °C 30.44in /  1030.7hPa Calm     86% 0.00in /  0mm 0 W/m2
02:16 9.2 °F /  -12.7 °C 5.9 °F /  -14.5 °C 30.44in /  1030.7hPa Calm     86% 0.00in /  0mm 0 W/m2
02:22 9.7 °F /  -12.4 °C 6.4 °F /  -14.2 °C 30.44in /  1030.7hPa Calm     86% 0.00in /  0mm 0 W/m2
02:28 10.1 °F /  -12.2 °C 6.7 °F /  -14.1 °C 30.44in /  1030.7hPa Calm     86% 0.00in /  0mm 0 W/m2
02:34 10.0 °F /  -12.2 °C 6.6 °F /  -14.1 °C 30.44in /  1030.7hPa Calm   1.0mph /  1.6km/h 86% 0.00in /  0mm 0 W/m2
02:40 10.1 °F /  -12.2 °C 6.7 °F /  -14.1 °C 30.43in /  1030.4hPa Calm     86% 0.00in /  0mm 0 W/m2
02:46 10.2 °F /  -12.1 °C 6.8 °F /  -14 °C 30.44in /  1030.7hPa Calm     86% 0.00in /  0mm 0 W/m2
02:52 10.6 °F /  -11.9 °C 7.2 °F /  -13.8 °C 30.43in /  1030.4hPa Calm     86% 0.00in /  0mm 0 W/m2
02:58 11.0 °F /  -11.7 °C 7.6 °F /  -13.6 °C 30.43in /  1030.4hPa Calm     86% 0.00in /  0mm 0 W/m2
03:04 11.4 °F /  -11.4 °C 8.0 °F /  -13.3 °C 30.43in /  1030.4hPa Calm     86% 0.00in /  0mm 0 W/m2
03:10 11.6 °F /  -11.3 °C 8.2 °F /  -13.2 °C 30.43in /  1030.4hPa Calm     86% 0.00in /  0mm 0 W/m2
03:16 11.9 °F /  -11.2 °C 8.5 °F /  -13.1 °C 30.43in /  1030.4hPa Calm   1.0mph /  1.6km/h 86% 0.00in /  0mm 0 W/m2
03:22 12.2 °F /  -11 °C 8.8 °F /  -12.9 °C 30.43in /  1030.4hPa Calm     86% 0.00in /  0mm 0 W/m2
03:28 12.4 °F /  -10.9 °C 9.0 °F /  -12.8 °C 30.43in /  1030.4hPa Calm   1.0mph /  1.6km/h 86% 0.00in /  0mm 0 W/m2
03:34 12.7 °F /  -10.7 °C 9.0 °F /  -12.8 °C 30.43in /  1030.4hPa Calm     85% 0.00in /  0mm 0 W/m2
03:40 13.0 °F /  -10.6 °C 9.3 °F /  -12.6 °C 30.43in /  1030.4hPa Calm     85% 0.00in /  0mm 0 W/m2
03:46 13.1 °F /  -10.5 °C 9.4 °F /  -12.6 °C 30.43in /  1030.4hPa Calm     85% 0.00in /  0mm 0 W/m2
03:52 13.2 °F /  -10.4 °C 9.5 °F /  -12.5 °C 30.43in /  1030.4hPa Calm     85% 0.00in /  0mm 0 W/m2
03:58 13.4 °F /  -10.3 °C 9.7 °F /  -12.4 °C 30.43in /  1030.4hPa Calm     85% 0.00in /  0mm 0 W/m2
04:04 13.6 °F /  -10.2 °C 9.9 °F /  -12.3 °C 30.41in /  1029.7hPa Calm   1.0mph /  1.6km/h 85% 0.00in /  0mm 0 W/m2
04:10 13.8 °F /  -10.1 °C 10.1 °F /  -12.2 °C 30.41in /  1029.7hPa Calm   1.0mph /  1.6km/h 85% 0.00in /  0mm 0 W/m2
04:16 13.9 °F /  -10.1 °C 10.0 °F /  -12.2 °C 30.41in /  1029.7hPa Calm   1.0mph /  1.6km/h 84% 0.00in /  0mm 0 W/m2
04:22 14.1 °F /  -9.9 °C 10.2 °F /  -12.1 °C 30.42in /  1030hPa Calm   1.0mph /  1.6km/h 84% 0.00in /  0mm 0 W/m2
04:28 14.2 °F /  -9.9 °C 10.0 °F /  -12.2 °C 30.42in /  1030hPa West 1.0mph /  1.6km/h 1.0mph /  1.6km/h 83% 0.00in /  0mm 0 W/m2
04:34 14.3 °F /  -9.8 °C 10.1 °F /  -12.2 °C 30.42in /  1030hPa Calm   1.0mph /  1.6km/h 83% 0.00in /  0mm 0 W/m2
04:40 14.4 °F /  -9.8 °C 9.9 °F /  -12.3 °C 30.41in /  1029.7hPa Calm     82% 0.00in /  0mm 0 W/m2
04:46 14.4 °F /  -9.8 °C 9.9 °F /  -12.3 °C 30.41in /  1029.7hPa Calm     82% 0.00in /  0mm 0 W/m2
04:52 14.4 °F /  -9.8 °C 9.9 °F /  -12.3 °C 30.41in /  1029.7hPa Calm     82% 0.00in /  0mm 0 W/m2
04:58 14.4 °F /  -9.8 °C 9.6 °F /  -12.4 °C 30.41in /  1029.7hPa Calm   1.0mph /  1.6km/h 81% 0.00in /  0mm 0 W/m2
05:04 14.4 °F /  -9.8 °C 9.6 °F /  -12.4 °C 30.40in /  1029.3hPa West 1.0mph /  1.6km/h 1.0mph /  1.6km/h 81% 0.00in /  0mm 0 W/m2
05:10 14.5 °F /  -9.7 °C 9.7 °F /  -12.4 °C 30.40in /  1029.3hPa West 1.0mph /  1.6km/h 1.0mph /  1.6km/h 81% 0.00in /  0mm 0 W/m2
05:16 14.5 °F /  -9.7 °C 9.7 °F /  -12.4 °C 30.39in /  1029hPa West 1.0mph /  1.6km/h 3.0mph /  4.8km/h 81% 0.00in /  0mm 0 W/m2
05:22 14.5 °F /  -9.7 °C 9.7 °F /  -12.4 °C 30.39in /  1029hPa West 1.0mph /  1.6km/h 1.0mph /  1.6km/h 81% 0.00in /  0mm 0 W/m2
05:28 14.5 °F /  -9.7 °C 9.7 °F /  -12.4 °C 30.38in /  1028.7hPa ENE 1.0mph /  1.6km/h 4.0mph /  6.4km/h 81% 0.00in /  0mm 0 W/m2
05:34 14.5 °F /  -9.7 °C 9.5 °F /  -12.5 °C 30.38in /  1028.7hPa ENE 2.0mph /  3.2km/h 2.0mph /  3.2km/h 80% 0.00in /  0mm 0 W/m2
05:40 14.6 °F /  -9.7 °C 9.6 °F /  -12.4 °C 30.38in /  1028.7hPa ENE 2.0mph /  3.2km/h 2.0mph /  3.2km/h 80% 0.00in /  0mm 0 W/m2
05:46 14.7 °F /  -9.6 °C 9.6 °F /  -12.4 °C 30.38in /  1028.7hPa ENE 1.0mph /  1.6km/h 2.0mph /  3.2km/h 80% 0.00in /  0mm 0 W/m2
05:52 14.8 °F /  -9.6 °C 9.7 °F /  -12.4 °C 30.38in /  1028.7hPa ENE 1.0mph /  1.6km/h 4.0mph /  6.4km/h 80% 0.00in /  0mm 0 W/m2
05:58 14.8 °F /  -9.6 °C 9.7 °F /  -12.4 °C 30.37in /  1028.3hPa ENE 1.0mph /  1.6km/h 4.0mph /  6.4km/h 80% 0.00in /  0mm 0 W/m2
06:04 14.8 °F /  -9.6 °C 9.7 °F /  -12.4 °C 30.36in /  1028hPa ENE 1.0mph /  1.6km/h 2.0mph /  3.2km/h 80% 0.00in /  0mm 0 W/m2
06:10 14.8 °F /  -9.6 °C 9.7 °F /  -12.4 °C 30.36in /  1028hPa ENE 2.0mph /  3.2km/h 2.0mph /  3.2km/h 80% 0.00in /  0mm 0 W/m2
06:16 14.7 °F /  -9.6 °C 9.6 °F /  -12.4 °C 30.35in /  1027.7hPa ENE 1.0mph /  1.6km/h 2.0mph /  3.2km/h 80% 0.00in /  0mm 0 W/m2
06:22 14.7 °F /  -9.6 °C 9.9 °F /  -12.3 °C 30.33in /  1027hPa ENE 1.0mph /  1.6km/h 2.0mph /  3.2km/h 81% 0.00in /  0mm 0 W/m2
06:28 14.6 °F /  -9.7 °C 9.8 °F /  -12.3 °C 30.33in /  1027hPa East 2.0mph /  3.2km/h 6.0mph /  9.7km/h 81% 0.00in /  0mm 0 W/m2
06:34 14.5 °F /  -9.7 °C 9.7 °F /  -12.4 °C 30.34in /  1027.3hPa ENE 2.0mph /  3.2km/h 3.0mph /  4.8km/h 81% 0.00in /  0mm 0 W/m2
06:40 14.5 °F /  -9.7 °C 9.7 °F /  -12.4 °C 30.33in /  1027hPa ENE 1.0mph /  1.6km/h 5.0mph /  8km/h 81% 0.00in /  0mm 0 W/m2
06:46 14.6 °F /  -9.7 °C 9.8 °F /  -12.3 °C 30.33in /  1027hPa ENE 1.0mph /  1.6km/h 5.0mph /  8km/h 81% 0.00in /  0mm 0 W/m2
06:52 14.8 °F /  -9.6 °C 10.0 °F /  -12.2 °C 30.33in /  1027hPa ENE 1.0mph /  1.6km/h 3.0mph /  4.8km/h 81% 0.00in /  0mm 0 W/m2
06:58 15.0 °F /  -9.4 °C 10.2 °F /  -12.1 °C 30.32in /  1026.6hPa East 1.0mph /  1.6km/h 3.0mph /  4.8km/h 81% 0.00in /  0mm 0 W/m2
07:04 15.2 °F /  -9.3 °C 10.4 °F /  -12 °C 30.31in /  1026.3hPa East 2.0mph /  3.2km/h 3.0mph /  4.8km/h 81% 0.00in /  0mm 0 W/m2
07:10 15.2 °F /  -9.3 °C 10.4 °F /  -12 °C 30.31in /  1026.3hPa East 1.0mph /  1.6km/h 5.0mph /  8km/h 81% 0.00in /  0mm 0 W/m2
07:16 15.4 °F /  -9.2 °C 10.6 °F /  -11.9 °C 30.32in /  1026.6hPa ENE 2.0mph /  3.2km/h 5.0mph /  8km/h 81% 0.00in /  0mm 0 W/m2
07:22 15.6 °F /  -9.1 °C 10.8 °F /  -11.8 °C 30.32in /  1026.6hPa East 2.0mph /  3.2km/h 2.0mph /  3.2km/h 81% 0.00in /  0mm 0 W/m2
07:28 15.7 °F /  -9.1 °C 10.6 °F /  -11.9 °C 30.30in /  1026hPa ENE 2.0mph /  3.2km/h 5.0mph /  8km/h 80% 0.00in /  0mm 0 W/m2
07:34 15.9 °F /  -8.9 °C 10.8 °F /  -11.8 °C 30.29in /  1025.6hPa ENE 3.0mph /  4.8km/h 3.0mph /  4.8km/h 80% 0.00in /  0mm 5 W/m2
07:40 16.0 °F /  -8.9 °C 10.9 °F /  -11.7 °C 30.28in /  1025.3hPa ENE 3.0mph /  4.8km/h 3.0mph /  4.8km/h 80% 0.00in /  0mm 7 W/m2
07:46 16.1 °F /  -8.8 °C 11.0 °F /  -11.7 °C 30.27in /  1024.9hPa ENE 2.0mph /  3.2km/h 3.0mph /  4.8km/h 80% 0.00in /  0mm 9 W/m2
07:52 16.3 °F /  -8.7 °C 11.2 °F /  -11.6 °C 30.26in /  1024.6hPa ENE 2.0mph /  3.2km/h 2.0mph /  3.2km/h 80% 0.00in /  0mm 11 W/m2
07:58 16.4 °F /  -8.7 °C 11.3 °F /  -11.5 °C 30.27in /  1024.9hPa East 2.0mph /  3.2km/h 3.0mph /  4.8km/h 80% 0.00in /  0mm 11 W/m2
08:04 16.7 °F /  -8.5 °C 11.6 °F /  -11.3 °C 30.27in /  1024.9hPa NE 2.0mph /  3.2km/h 3.0mph /  4.8km/h 80% 0.00in /  0mm 12 W/m2
08:10 16.9 °F /  -8.4 °C 11.8 °F /  -11.2 °C 30.27in /  1024.9hPa NE 1.0mph /  1.6km/h 1.0mph /  1.6km/h 80% 0.00in /  0mm 16 W/m2
08:16 17.1 °F /  -8.3 °C 11.7 °F /  -11.3 °C 30.27in /  1024.9hPa ENE 1.0mph /  1.6km/h 2.0mph /  3.2km/h 79% 0.00in /  0mm 16 W/m2
08:22 17.2 °F /  -8.2 °C 11.8 °F /  -11.2 °C 30.27in /  1024.9hPa ENE 1.0mph /  1.6km/h 2.0mph /  3.2km/h 79% 0.00in /  0mm 18 W/m2
08:28 17.2 °F /  -8.2 °C 12.1 °F /  -11.1 °C 30.28in /  1025.3hPa NE 2.0mph /  3.2km/h 2.0mph /  3.2km/h 80% 0.00in /  0mm 18 W/m2
08:34 17.1 °F /  -8.3 °C 12.0 °F /  -11.1 °C 30.27in /  1024.9hPa ENE 2.0mph /  3.2km/h 3.0mph /  4.8km/h 80% 0.00in /  0mm 18 W/m2
08:40 16.9 °F /  -8.4 °C 12.4 °F /  -10.9 °C 30.27in /  1024.9hPa ENE 2.0mph /  3.2km/h 2.0mph /  3.2km/h 82% 0.00in /  0mm 21 W/m2
08:46 16.8 °F /  -8.4 °C 12.5 °F /  -10.8 °C 30.27in /  1024.9hPa ENE 2.0mph /  3.2km/h 3.0mph /  4.8km/h 83% 0.00in /  0mm 21 W/m2
08:52 16.9 °F /  -8.4 °C 12.9 °F /  -10.6 °C 30.27in /  1024.9hPa East 2.0mph /  3.2km/h 2.0mph /  3.2km/h 84% 0.00in /  0mm 28 W/m2
08:58 17.0 °F /  -8.3 °C 13.3 °F /  -10.4 °C 30.26in /  1024.6hPa ENE 2.0mph /  3.2km/h 4.0mph /  6.4km/h 85% 0.00in /  0mm 37 W/m2
09:04 17.2 °F /  -8.2 °C 13.7 °F /  -10.2 °C 30.25in /  1024.3hPa ENE 3.0mph /  4.8km/h 3.0mph /  4.8km/h 86% 0.00in /  0mm 39 W/m2
09:10 17.4 °F /  -8.1 °C 13.9 °F /  -10.1 °C 30.24in /  1023.9hPa East 3.0mph /  4.8km/h 3.0mph /  4.8km/h 86% 0.00in /  0mm 39 W/m2
09:16 17.6 °F /  -8 °C 14.4 °F /  -9.8 °C 30.23in /  1023.6hPa ENE 3.0mph /  4.8km/h 4.0mph /  6.4km/h 87% 0.00in /  0mm 46 W/m2
09:22 17.8 °F /  -7.9 °C 14.6 °F /  -9.7 °C 30.23in /  1023.6hPa East 4.0mph /  6.4km/h 8.0mph /  12.9km/h 87% 0.00in /  0mm 47 W/m2
09:28 18.0 °F /  -7.8 °C 14.8 °F /  -9.6 °C 30.23in /  1023.6hPa ESE 4.0mph /  6.4km/h 8.0mph /  12.9km/h 87% 0.00in /  0mm 46 W/m2
09:34 18.2 °F /  -7.7 °C 15.2 °F /  -9.3 °C 30.22in /  1023.2hPa East 3.0mph /  4.8km/h 4.0mph /  6.4km/h 88% 0.00in /  0mm 46 W/m2
09:40 18.4 °F /  -7.6 °C 15.4 °F /  -9.2 °C 30.21in /  1022.9hPa SE 4.0mph /  6.4km/h 4.0mph /  6.4km/h 88% 0.00in /  0mm 46 W/m2
09:46 18.5 °F /  -7.5 °C 15.5 °F /  -9.2 °C 30.21in /  1022.9hPa East 4.0mph /  6.4km/h 4.0mph /  6.4km/h 88% 0.00in /  0mm 47 W/m2
09:52 18.6 °F /  -7.4 °C 15.6 °F /  -9.1 °C 30.20in /  1022.6hPa East 4.0mph /  6.4km/h 5.0mph /  8km/h 88% 0.00in /  0mm 51 W/m2
09:58 18.7 °F /  -7.4 °C 15.7 °F /  -9.1 °C 30.19in /  1022.2hPa East 3.0mph /  4.8km/h 9.0mph /  14.5km/h 88% 0.00in /  0mm 56 W/m2
10:04 18.8 °F /  -7.3 °C 15.8 °F /  -9 °C 30.18in /  1021.9hPa East 4.0mph /  6.4km/h 10.0mph /  16.1km/h 88% 0.00in /  0mm 60 W/m2
10:10 18.8 °F /  -7.3 °C 15.8 °F /  -9 °C 30.18in /  1021.9hPa ENE 5.0mph /  8km/h 5.0mph /  8km/h 88% 0.00in /  0mm 58 W/m2
10:16 18.9 °F /  -7.3 °C 15.9 °F /  -8.9 °C 30.18in /  1021.9hPa ENE 5.0mph /  8km/h 9.0mph /  14.5km/h 88% 0.00in /  0mm 58 W/m2
10:22 19.0 °F /  -7.2 °C 16.3 °F /  -8.7 °C 30.17in /  1021.6hPa ENE 4.0mph /  6.4km/h 5.0mph /  8km/h 89% 0.00in /  0mm 60 W/m2
10:28 18.9 °F /  -7.3 °C 16.2 °F /  -8.8 °C 30.16in /  1021.2hPa ENE 3.0mph /  4.8km/h 8.0mph /  12.9km/h 89% 0.00in /  0mm 53 W/m2
10:34 18.9 °F /  -7.3 °C 16.2 °F /  -8.8 °C 30.16in /  1021.2hPa ENE 4.0mph /  6.4km/h 5.0mph /  8km/h 89% 0.00in /  0mm 51 W/m2
10:40 18.8 °F /  -7.3 °C 16.1 °F /  -8.8 °C 30.15in /  1020.9hPa ENE 5.0mph /  8km/h 5.0mph /  8km/h 89% 0.00in /  0mm 46 W/m2
10:46 18.8 °F /  -7.3 °C 16.1 °F /  -8.8 °C 30.14in /  1020.5hPa NNE 4.0mph /  6.4km/h 9.0mph /  14.5km/h 89% 0.00in /  0mm 42 W/m2
10:52 18.9 °F /  -7.3 °C 16.2 °F /  -8.8 °C 30.13in /  1020.2hPa ENE 4.0mph /  6.4km/h 7.0mph /  11.3km/h 89% 0.00in /  0mm 46 W/m2
10:58 18.9 °F /  -7.3 °C 16.2 °F /  -8.8 °C 30.12in /  1019.9hPa East 4.0mph /  6.4km/h 8.0mph /  12.9km/h 89% 0.00in /  0mm 46 W/m2
11:04 18.8 °F /  -7.3 °C 16.1 °F /  -8.8 °C 30.11in /  1019.5hPa ESE 5.0mph /  8km/h 7.0mph /  11.3km/h 89% 0.00in /  0mm 44 W/m2
11:10 18.8 °F /  -7.3 °C 16.1 °F /  -8.8 °C 30.10in /  1019.2hPa NE 6.0mph /  9.7km/h 8.0mph /  12.9km/h 89% 0.00in /  0mm 49 W/m2
11:16 18.9 °F /  -7.3 °C 16.2 °F /  -8.8 °C 30.10in /  1019.2hPa East 5.0mph /  8km/h 8.0mph /  12.9km/h 89% 0.00in /  0mm 49 W/m2
11:22 19.0 °F /  -7.2 °C 16.3 °F /  -8.7 °C 30.10in /  1019.2hPa ENE 5.0mph /  8km/h 5.0mph /  8km/h 89% 0.00in /  0mm 58 W/m2
11:28 19.0 °F /  -7.2 °C 16.6 °F /  -8.6 °C 30.09in /  1018.8hPa ESE 6.0mph /  9.7km/h 10.0mph /  16.1km/h 90% 0.00in /  0mm 58 W/m2
11:34 19.0 °F /  -7.2 °C 16.6 °F /  -8.6 °C 30.09in /  1018.8hPa East 6.0mph /  9.7km/h 8.0mph /  12.9km/h 90% 0.00in /  0mm 63 W/m2
11:40 19.2 °F /  -7.1 °C 16.7 °F /  -8.5 °C 30.08in /  1018.5hPa ENE 5.0mph /  8km/h 8.0mph /  12.9km/h 90% 0.00in /  0mm 70 W/m2
11:46 19.2 °F /  -7.1 °C 16.7 °F /  -8.5 °C 30.07in /  1018.2hPa ENE 6.0mph /  9.7km/h 9.0mph /  14.5km/h 90% 0.00in /  0mm 56 W/m2
11:52 19.3 °F /  -7.1 °C 16.8 °F /  -8.4 °C 30.07in /  1018.2hPa NE 5.0mph /  8km/h 6.0mph /  9.7km/h 90% 0.00in /  0mm 62 W/m2
11:58 19.3 °F /  -7.1 °C 16.8 °F /  -8.4 °C 30.07in /  1018.2hPa ENE 5.0mph /  8km/h 6.0mph /  9.7km/h 90% 0.00in /  0mm 72 W/m2
12:04 19.3 °F /  -7.1 °C 16.8 °F /  -8.4 °C 30.06in /  1017.8hPa NE 5.0mph /  8km/h 7.0mph /  11.3km/h 90% 0.00in /  0mm 70 W/m2
12:10 19.4 °F /  -7 °C 16.9 °F /  -8.4 °C 30.06in /  1017.8hPa NE 5.0mph /  8km/h 5.0mph /  8km/h 90% 0.00in /  0mm 69 W/m2
12:16 19.4 °F /  -7 °C 16.9 °F /  -8.4 °C 30.05in /  1017.5hPa ENE 5.0mph /  8km/h 11.0mph /  17.7km/h 90% 0.00in /  0mm 70 W/m2
12:22 19.4 °F /  -7 °C 16.9 °F /  -8.4 °C 30.05in /  1017.5hPa ENE 5.0mph /  8km/h 8.0mph /  12.9km/h 90% 0.00in /  0mm 76 W/m2
12:28 19.4 °F /  -7 °C 16.9 °F /  -8.4 °C 30.04in /  1017.2hPa East 6.0mph /  9.7km/h 9.0mph /  14.5km/h 90% 0.00in /  0mm 74 W/m2
12:34 19.5 °F /  -6.9 °C 17.0 °F /  -8.3 °C 30.04in /  1017.2hPa ENE 5.0mph /  8km/h 7.0mph /  11.3km/h 90% 0.00in /  0mm 65 W/m2
12:40 19.5 °F /  -6.9 °C 17.0 °F /  -8.3 °C 30.04in /  1017.2hPa East 3.0mph /  4.8km/h 3.0mph /  4.8km/h 90% 0.00in /  0mm 56 W/m2
12:46 19.5 °F /  -6.9 °C 17.0 °F /  -8.3 °C 30.04in /  1017.2hPa SE 3.0mph /  4.8km/h 6.0mph /  9.7km/h 90% 0.00in /  0mm 62 W/m2
12:52 19.6 °F /  -6.9 °C 17.1 °F /  -8.3 °C 30.03in /  1016.8hPa ENE 5.0mph /  8km/h 5.0mph /  8km/h 90% 0.00in /  0mm 65 W/m2
12:58 19.6 °F /  -6.9 °C 17.1 °F /  -8.3 °C 30.02in /  1016.5hPa ENE 4.0mph /  6.4km/h 5.0mph /  8km/h 90% 0.00in /  0mm 70 W/m2
13:04 19.7 °F /  -6.8 °C 17.2 °F /  -8.2 °C 30.01in /  1016.1hPa ESE 4.0mph /  6.4km/h 4.0mph /  6.4km/h 90% 0.00in /  0mm 74 W/m2
13:10 19.7 °F /  -6.8 °C 17.2 °F /  -8.2 °C 30.01in /  1016.1hPa East 4.0mph /  6.4km/h 5.0mph /  8km/h 90% 0.00in /  0mm 65 W/m2
13:16 19.8 °F /  -6.8 °C 17.3 °F /  -8.2 °C 30.01in /  1016.1hPa East 4.0mph /  6.4km/h 9.0mph /  14.5km/h 90% 0.00in /  0mm 65 W/m2
13:22 19.9 °F /  -6.7 °C 17.4 °F /  -8.1 °C 30.01in /  1016.1hPa ENE 4.0mph /  6.4km/h 7.0mph /  11.3km/h 90% 0.00in /  0mm 65 W/m2
13:28 19.9 °F /  -6.7 °C 17.4 °F /  -8.1 °C 30.01in /  1016.1hPa ESE 4.0mph /  6.4km/h 7.0mph /  11.3km/h 90% 0.00in /  0mm 60 W/m2
13:34 20.0 °F /  -6.7 °C 17.5 °F /  -8.1 °C 30.00in /  1015.8hPa ENE 3.0mph /  4.8km/h 4.0mph /  6.4km/h 90% 0.00in /  0mm 62 W/m2
13:40 20.1 °F /  -6.6 °C 17.6 °F /  -8 °C 29.99in /  1015.5hPa SE 3.0mph /  4.8km/h 3.0mph /  4.8km/h 90% 0.00in /  0mm 76 W/m2
13:46 20.1 °F /  -6.6 °C 17.6 °F /  -8 °C 29.98in /  1015.1hPa ENE 4.0mph /  6.4km/h 4.0mph /  6.4km/h 90% 0.00in /  0mm 84 W/m2
13:52 20.2 °F /  -6.6 °C 18.0 °F /  -7.8 °C 29.98in /  1015.1hPa East 4.0mph /  6.4km/h 7.0mph /  11.3km/h 91% 0.00in /  0mm 70 W/m2
13:58 20.2 °F /  -6.6 °C 18.0 °F /  -7.8 °C 29.98in /  1015.1hPa East 4.0mph /  6.4km/h 7.0mph /  11.3km/h 91% 0.00in /  0mm 58 W/m2
14:04 20.2 °F /  -6.6 °C 18.0 °F /  -7.8 °C 29.98in /  1015.1hPa East 4.0mph /  6.4km/h 4.0mph /  6.4km/h 91% 0.00in /  0mm 51 W/m2
14:10 20.2 °F /  -6.6 °C 18.0 °F /  -7.8 °C 29.98in /  1015.1hPa East 3.0mph /  4.8km/h 3.0mph /  4.8km/h 91% 0.00in /  0mm 53 W/m2
14:16 20.3 °F /  -6.5 °C 18.1 °F /  -7.7 °C 29.97in /  1014.8hPa ENE 3.0mph /  4.8km/h 7.0mph /  11.3km/h 91% 0.00in /  0mm 62 W/m2
14:22 20.3 °F /  -6.5 °C 18.1 °F /  -7.7 °C 29.96in /  1014.4hPa ESE 4.0mph /  6.4km/h 5.0mph /  8km/h 91% 0.00in /  0mm 74 W/m2
14:28 20.4 °F /  -6.4 °C 18.2 °F /  -7.7 °C 29.97in /  1014.8hPa SE 4.0mph /  6.4km/h 5.0mph /  8km/h 91% 0.00in /  0mm 67 W/m2
14:34 20.5 °F /  -6.4 °C 18.3 °F /  -7.6 °C 29.98in /  1015.1hPa East 3.0mph /  4.8km/h 3.0mph /  4.8km/h 91% 0.00in /  0mm 56 W/m2
14:40 20.6 °F /  -6.3 °C 18.4 °F /  -7.6 °C 29.96in /  1014.4hPa SE 2.0mph /  3.2km/h 2.0mph /  3.2km/h 91% 0.00in /  0mm 56 W/m2
14:46 20.6 °F /  -6.3 °C 18.4 °F /  -7.6 °C 29.96in /  1014.4hPa ESE 2.0mph /  3.2km/h 4.0mph /  6.4km/h 91% 0.00in /  0mm 58 W/m2
14:52 20.6 °F /  -6.3 °C 18.4 °F /  -7.6 °C 29.96in /  1014.4hPa SSE 1.0mph /  1.6km/h 3.0mph /  4.8km/h 91% 0.00in /  0mm 47 W/m2
14:58 20.7 °F /  -6.3 °C 18.5 °F /  -7.5 °C 29.96in /  1014.4hPa East 1.0mph /  1.6km/h 6.0mph /  9.7km/h 91% 0.00in /  0mm 44 W/m2
15:04 20.7 °F /  -6.3 °C 18.5 °F /  -7.5 °C 29.96in /  1014.4hPa SE 2.0mph /  3.2km/h 4.0mph /  6.4km/h 91% 0.00in /  0mm 46 W/m2
15:10 20.8 °F /  -6.2 °C 18.6 °F /  -7.4 °C 29.96in /  1014.4hPa SE 1.0mph /  1.6km/h 2.0mph /  3.2km/h 91% 0.00in /  0mm 46 W/m2
15:16 20.9 °F /  -6.2 °C 18.7 °F /  -7.4 °C 29.96in /  1014.4hPa East 1.0mph /  1.6km/h 2.0mph /  3.2km/h 91% 0.00in /  0mm 44 W/m2
15:22 20.9 °F /  -6.2 °C 18.7 °F /  -7.4 °C 29.96in /  1014.4hPa SE 2.0mph /  3.2km/h 4.0mph /  6.4km/h 91% 0.00in /  0mm 42 W/m2
15:28 20.9 °F /  -6.2 °C 18.7 °F /  -7.4 °C 29.97in /  1014.8hPa SE 2.0mph /  3.2km/h 4.0mph /  6.4km/h 91% 0.00in /  0mm 32 W/m2
15:34 21.0 °F /  -6.1 °C 18.8 °F /  -7.3 °C 29.96in /  1014.4hPa East 2.0mph /  3.2km/h 2.0mph /  3.2km/h 91% 0.00in /  0mm 39 W/m2
15:42 21.0 °F /  -6.1 °C 18.8 °F /  -7.3 °C 29.96in /  1014.4hPa East 1.0mph /  1.6km/h 1.0mph /  1.6km/h 91% 0.00in /  0mm 25 W/m2
15:48 21.0 °F /  -6.1 °C 18.8 °F /  -7.3 °C 29.97in /  1014.8hPa SSE 2.0mph /  3.2km/h 2.0mph /  3.2km/h 91% 0.00in /  0mm 30 W/m2
15:54 21.0 °F /  -6.1 °C 18.8 °F /  -7.3 °C 29.96in /  1014.4hPa SSE 1.0mph /  1.6km/h 2.0mph /  3.2km/h 91% 0.00in /  0mm 39 W/m2
16:00 21.1 °F /  -6.1 °C 18.9 °F /  -7.3 °C 29.96in /  1014.4hPa SSE 2.0mph /  3.2km/h 2.0mph /  3.2km/h 91% 0.00in /  0mm 39 W/m2
16:06 21.1 °F /  -6.1 °C 18.9 °F /  -7.3 °C 29.96in /  1014.4hPa SE 2.0mph /  3.2km/h 3.0mph /  4.8km/h 91% 0.00in /  0mm 39 W/m2
16:12 21.1 °F /  -6.1 °C 18.9 °F /  -7.3 °C 29.97in /  1014.8hPa SE 2.0mph /  3.2km/h 2.0mph /  3.2km/h 91% 0.00in /  0mm 26 W/m2
16:20 21.2 °F /  -6 °C 19.0 °F /  -7.2 °C 29.97in /  1014.8hPa SE 1.0mph /  1.6km/h 1.0mph /  1.6km/h 91% 0.00in /  0mm 25 W/m2
16:26 21.2 °F /  -6 °C 19.0 °F /  -7.2 °C 29.96in /  1014.4hPa SE 1.0mph /  1.6km/h 1.0mph /  1.6km/h 91% 0.00in /  0mm 63 W/m2
16:32 21.3 °F /  -5.9 °C 19.1 °F /  -7.2 °C 29.96in /  1014.4hPa Calm   1.0mph /  1.6km/h 91% 0.00in /  0mm 83 W/m2
16:38 21.5 °F /  -5.8 °C 19.3 °F /  -7.1 °C 29.97in /  1014.8hPa Calm   2.0mph /  3.2km/h 91% 0.00in /  0mm 70 W/m2
16:44 21.7 °F /  -5.7 °C 19.5 °F /  -6.9 °C 29.98in /  1015.1hPa Calm   1.0mph /  1.6km/h 91% 0.00in /  0mm 42 W/m2
16:50 21.7 °F /  -5.7 °C 19.5 °F /  -6.9 °C 29.98in /  1015.1hPa Calm     91% 0.00in /  0mm 18 W/m2
16:56 21.5 °F /  -5.8 °C 19.3 °F /  -7.1 °C 29.98in /  1015.1hPa SE 1.0mph /  1.6km/h 3.0mph /  4.8km/h 91% 0.00in /  0mm 11 W/m2
17:02 21.4 °F /  -5.9 °C 19.2 °F /  -7.1 °C 29.98in /  1015.1hPa SE 1.0mph /  1.6km/h 1.0mph /  1.6km/h 91% 0.00in /  0mm 5 W/m2
17:08 21.3 °F /  -5.9 °C 19.1 °F /  -7.2 °C 29.99in /  1015.5hPa Calm   1.0mph /  1.6km/h 91% 0.00in /  0mm 5 W/m2
17:14 21.3 °F /  -5.9 °C 19.1 °F /  -7.2 °C 29.99in /  1015.5hPa Calm   1.0mph /  1.6km/h 91% 0.00in /  0mm 0 W/m2
17:20 21.3 °F /  -5.9 °C 19.1 °F /  -7.2 °C 29.99in /  1015.5hPa Calm   1.0mph /  1.6km/h 91% 0.00in /  0mm 0 W/m2
17:26 21.3 °F /  -5.9 °C 19.1 °F /  -7.2 °C 30.00in /  1015.8hPa Calm   1.0mph /  1.6km/h 91% 0.00in /  0mm 0 W/m2
17:32 21.3 °F /  -5.9 °C 19.1 °F /  -7.2 °C 30.00in /  1015.8hPa Calm   1.0mph /  1.6km/h 91% 0.00in /  0mm 0 W/m2
17:38 21.2 °F /  -6 °C 19.0 °F /  -7.2 °C 30.01in /  1016.1hPa Calm   2.0mph /  3.2km/h 91% 0.00in /  0mm 0 W/m2
17:44 21.2 °F /  -6 °C 19.0 °F /  -7.2 °C 30.01in /  1016.1hPa SE 1.0mph /  1.6km/h 1.0mph /  1.6km/h 91% 0.00in /  0mm 0 W/m2
17:50 21.3 °F /  -5.9 °C 19.1 °F /  -7.2 °C 30.01in /  1016.1hPa Calm     91% 0.00in /  0mm 0 W/m2
17:56 21.3 °F /  -5.9 °C 19.1 °F /  -7.2 °C 30.02in /  1016.5hPa Calm   1.0mph /  1.6km/h 91% 0.00in /  0mm 0 W/m2
18:02 21.3 °F /  -5.9 °C 19.1 °F /  -7.2 °C 30.02in /  1016.5hPa SSW 1.0mph /  1.6km/h 2.0mph /  3.2km/h 91% 0.00in /  0mm 0 W/m2
18:08 21.3 °F /  -5.9 °C 19.1 °F /  -7.2 °C 30.03in /  1016.8hPa Calm   2.0mph /  3.2km/h 91% 0.00in /  0mm 0 W/m2
18:14 21.3 °F /  -5.9 °C 19.1 °F /  -7.2 °C 30.03in /  1016.8hPa Calm     91% 0.00in /  0mm 0 W/m2
18:20 21.3 °F /  -5.9 °C 19.1 °F /  -7.2 °C 30.03in /  1016.8hPa Calm     91% 0.00in /  0mm 0 W/m2
18:26 21.3 °F /  -5.9 °C 19.1 °F /  -7.2 °C 30.04in /  1017.2hPa Calm   1.0mph /  1.6km/h 91% 0.00in /  0mm 0 W/m2
18:32 21.4 °F /  -5.9 °C 19.2 °F /  -7.1 °C 30.04in /  1017.2hPa Calm     91% 0.00in /  0mm 0 W/m2
18:38 21.4 °F /  -5.9 °C 19.2 °F /  -7.1 °C 30.05in /  1017.5hPa Calm     91% 0.00in /  0mm 0 W/m2
18:44 21.5 °F /  -5.8 °C 19.3 °F /  -7.1 °C 30.05in /  1017.5hPa Calm   2.0mph /  3.2km/h 91% 0.00in /  0mm 0 W/m2
18:50 21.5 °F /  -5.8 °C 19.3 °F /  -7.1 °C 30.06in /  1017.8hPa SSW 1.0mph /  1.6km/h 2.0mph /  3.2km/h 91% 0.00in /  0mm 0 W/m2
18:56 21.6 °F /  -5.8 °C 19.4 °F /  -7 °C 30.06in /  1017.8hPa SSW 1.0mph /  1.6km/h 2.0mph /  3.2km/h 91% 0.00in /  0mm 0 W/m2
19:02 21.7 °F /  -5.7 °C 19.5 °F /  -6.9 °C 30.06in /  1017.8hPa SSW 1.0mph /  1.6km/h 1.0mph /  1.6km/h 91% 0.00in /  0mm 0 W/m2
19:08 21.8 °F /  -5.7 °C 19.6 °F /  -6.9 °C 30.06in /  1017.8hPa SSW 1.0mph /  1.6km/h 2.0mph /  3.2km/h 91% 0.00in /  0mm 0 W/m2
19:14 21.9 °F /  -5.6 °C 19.7 °F /  -6.8 °C 30.07in /  1018.2hPa SSW 1.0mph /  1.6km/h 1.0mph /  1.6km/h 91% 0.00in /  0mm 0 W/m2
19:20 22.1 °F /  -5.5 °C 19.9 °F /  -6.7 °C 30.07in /  1018.2hPa SW 1.0mph /  1.6km/h 1.0mph /  1.6km/h 91% 0.00in /  0mm 0 W/m2
19:26 22.3 °F /  -5.4 °C 20.1 °F /  -6.6 °C 30.07in /  1018.2hPa SW 1.0mph /  1.6km/h 1.0mph /  1.6km/h 91% 0.00in /  0mm 0 W/m2
19:32 22.5 °F /  -5.3 °C 20.3 °F /  -6.5 °C 30.08in /  1018.5hPa SW 1.0mph /  1.6km/h 1.0mph /  1.6km/h 91% 0.00in /  0mm 0 W/m2
19:38 22.6 °F /  -5.2 °C 20.4 °F /  -6.4 °C 30.08in /  1018.5hPa SW 1.0mph /  1.6km/h 1.0mph /  1.6km/h 91% 0.00in /  0mm 0 W/m2
19:44 22.8 °F /  -5.1 °C 20.6 °F /  -6.3 °C 30.08in /  1018.5hPa WNW 1.0mph /  1.6km/h 3.0mph /  4.8km/h 91% 0.00in /  0mm 0 W/m2
19:50 23.0 °F /  -5 °C 20.8 °F /  -6.2 °C 30.09in /  1018.8hPa West 1.0mph /  1.6km/h 2.0mph /  3.2km/h 91% 0.00in /  0mm 0 W/m2
19:56 23.1 °F /  -4.9 °C 20.9 °F /  -6.2 °C 30.09in /  1018.8hPa West 1.0mph /  1.6km/h 2.0mph /  3.2km/h 91% 0.00in /  0mm 0 W/m2
20:02 23.2 °F /  -4.9 °C 21.0 °F /  -6.1 °C 30.09in /  1018.8hPa West 1.0mph /  1.6km/h 2.0mph /  3.2km/h 91% 0.00in /  0mm 0 W/m2
20:08 23.3 °F /  -4.8 °C 21.1 °F /  -6.1 °C 30.10in /  1019.2hPa West 2.0mph /  3.2km/h 3.0mph /  4.8km/h 91% 0.00in /  0mm 0 W/m2
20:14 23.5 °F /  -4.7 °C 21.3 °F /  -5.9 °C 30.10in /  1019.2hPa WNW 2.0mph /  3.2km/h 3.0mph /  4.8km/h 91% 0.00in /  0mm 0 W/m2
20:20 23.5 °F /  -4.7 °C 21.3 °F /  -5.9 °C 30.10in /  1019.2hPa WNW 2.0mph /  3.2km/h 2.0mph /  3.2km/h 91% 0.00in /  0mm 0 W/m2
20:26 23.5 °F /  -4.7 °C 21.3 °F /  -5.9 °C 30.10in /  1019.2hPa WNW 1.0mph /  1.6km/h 3.0mph /  4.8km/h 91% 0.00in /  0mm 0 W/m2
20:32 23.5 °F /  -4.7 °C 21.3 °F /  -5.9 °C 30.10in /  1019.2hPa WNW 1.0mph /  1.6km/h 2.0mph /  3.2km/h 91% 0.00in /  0mm 0 W/m2
20:38 23.5 °F /  -4.7 °C 21.3 °F /  -5.9 °C 30.11in /  1019.5hPa WNW 1.0mph /  1.6km/h 2.0mph /  3.2km/h 91% 0.00in /  0mm 0 W/m2
20:44 23.5 °F /  -4.7 °C 21.3 °F /  -5.9 °C 30.12in /  1019.9hPa WNW 2.0mph /  3.2km/h 4.0mph /  6.4km/h 91% 0.00in /  0mm 0 W/m2
20:50 23.4 °F /  -4.8 °C 21.2 °F /  -6 °C 30.12in /  1019.9hPa WNW 2.0mph /  3.2km/h 2.0mph /  3.2km/h 91% 0.00in /  0mm 0 W/m2
20:56 23.3 °F /  -4.8 °C 21.1 °F /  -6.1 °C 30.13in /  1020.2hPa NNW 2.0mph /  3.2km/h 3.0mph /  4.8km/h 91% 0.00in /  0mm 0 W/m2
21:02 23.2 °F /  -4.9 °C 21.0 °F /  -6.1 °C 30.13in /  1020.2hPa NNW 2.0mph /  3.2km/h 2.0mph /  3.2km/h 91% 0.00in /  0mm 0 W/m2
21:08 23.2 °F /  -4.9 °C 21.0 °F /  -6.1 °C 30.13in /  1020.2hPa NW 2.0mph /  3.2km/h 3.0mph /  4.8km/h 91% 0.00in /  0mm 0 W/m2
21:14 23.1 °F /  -4.9 °C 20.9 °F /  -6.2 °C 30.14in /  1020.5hPa NW 2.0mph /  3.2km/h 4.0mph /  6.4km/h 91% 0.00in /  0mm 0 W/m2
21:20 23.0 °F /  -5 °C 20.8 °F /  -6.2 °C 30.15in /  1020.9hPa North 2.0mph /  3.2km/h 3.0mph /  4.8km/h 91% 0.00in /  0mm 0 W/m2
21:26 22.9 °F /  -5.1 °C 20.7 °F /  -6.3 °C 30.15in /  1020.9hPa NNW 2.0mph /  3.2km/h 3.0mph /  4.8km/h 91% 0.00in /  0mm 0 W/m2
21:32 22.8 °F /  -5.1 °C 20.6 °F /  -6.3 °C 30.15in /  1020.9hPa NNW 2.0mph /  3.2km/h 2.0mph /  3.2km/h 91% 0.00in /  0mm 0 W/m2
21:38 22.8 °F /  -5.1 °C 20.6 °F /  -6.3 °C 30.15in /  1020.9hPa NNW 1.0mph /  1.6km/h 2.0mph /  3.2km/h 91% 0.00in /  0mm 0 W/m2
21:44 22.8 °F /  -5.1 °C 20.6 °F /  -6.3 °C 30.15in /  1020.9hPa NNW 1.0mph /  1.6km/h 3.0mph /  4.8km/h 91% 0.00in /  0mm 0 W/m2
21:50 22.8 °F /  -5.1 °C 20.6 °F /  -6.3 °C 30.15in /  1020.9hPa NNW 1.0mph /  1.6km/h 4.0mph /  6.4km/h 91% 0.00in /  0mm 0 W/m2
21:56 22.8 °F /  -5.1 °C 20.6 °F /  -6.3 °C 30.16in /  1021.2hPa NW 1.0mph /  1.6km/h 4.0mph /  6.4km/h 91% 0.00in /  0mm 0 W/m2
22:02 22.8 °F /  -5.1 °C 20.6 °F /  -6.3 °C 30.16in /  1021.2hPa WNW 3.0mph /  4.8km/h 4.0mph /  6.4km/h 91% 0.00in /  0mm 0 W/m2
22:08 22.8 °F /  -5.1 °C 20.6 °F /  -6.3 °C 30.16in /  1021.2hPa WNW 3.0mph /  4.8km/h 6.0mph /  9.7km/h 91% 0.00in /  0mm 0 W/m2
22:14 22.8 °F /  -5.1 °C 20.6 °F /  -6.3 °C 30.17in /  1021.6hPa WNW 3.0mph /  4.8km/h 3.0mph /  4.8km/h 91% 0.00in /  0mm 0 W/m2
22:20 22.6 °F /  -5.2 °C 20.4 °F /  -6.4 °C 30.17in /  1021.6hPa NW 3.0mph /  4.8km/h 4.0mph /  6.4km/h 91% 0.00in /  0mm 0 W/m2
22:26 22.3 °F /  -5.4 °C 20.1 °F /  -6.6 °C 30.18in /  1021.9hPa NW 3.0mph /  4.8km/h 7.0mph /  11.3km/h 91% 0.00in /  0mm 0 W/m2
22:32 22.0 °F /  -5.6 °C 19.8 °F /  -6.8 °C 30.18in /  1021.9hPa NNW 2.0mph /  3.2km/h 3.0mph /  4.8km/h 91% 0.00in /  0mm 0 W/m2
22:38 21.7 °F /  -5.7 °C 19.5 °F /  -6.9 °C 30.18in /  1021.9hPa NNW 2.0mph /  3.2km/h 3.0mph /  4.8km/h 91% 0.00in /  0mm 0 W/m2
22:44 21.4 °F /  -5.9 °C 19.2 °F /  -7.1 °C 30.18in /  1021.9hPa NW 2.0mph /  3.2km/h 3.0mph /  4.8km/h 91% 0.00in /  0mm 0 W/m2
22:50 21.2 °F /  -6 °C 19.0 °F /  -7.2 °C 30.18in /  1021.9hPa NW 2.0mph /  3.2km/h 6.0mph /  9.7km/h 91% 0.00in /  0mm 0 W/m2
22:56 20.9 °F /  -6.2 °C 18.7 °F /  -7.4 °C 30.18in /  1021.9hPa North 2.0mph /  3.2km/h 6.0mph /  9.7km/h 91% 0.00in /  0mm 0 W/m2
23:02 20.6 °F /  -6.3 °C 18.4 °F /  -7.6 °C 30.19in /  1022.2hPa NNW 2.0mph /  3.2km/h 3.0mph /  4.8km/h 91% 0.00in /  0mm 0 W/m2
23:08 20.4 °F /  -6.4 °C 17.9 °F /  -7.8 °C 30.19in /  1022.2hPa NNW 2.0mph /  3.2km/h 3.0mph /  4.8km/h 90% 0.00in /  0mm 0 W/m2
23:14 20.1 °F /  -6.6 °C 17.6 °F /  -8 °C 30.19in /  1022.2hPa NNW 1.0mph /  1.6km/h 2.0mph /  3.2km/h 90% 0.00in /  0mm 0 W/m2
23:20 19.9 °F /  -6.7 °C 17.4 °F /  -8.1 °C 30.19in /  1022.2hPa NNW 1.0mph /  1.6km/h 1.0mph /  1.6km/h 90% 0.00in /  0mm 0 W/m2
23:26 19.9 °F /  -6.7 °C 17.4 °F /  -8.1 °C 30.20in /  1022.6hPa Calm   2.0mph /  3.2km/h 90% 0.00in /  0mm 0 W/m2
23:32 20.0 °F /  -6.7 °C 17.5 °F /  -8.1 °C 30.20in /  1022.6hPa Calm     90% 0.00in /  0mm 0 W/m2
23:38 20.2 °F /  -6.6 °C 18.0 °F /  -7.8 °C 30.21in /  1022.9hPa Calm     91% 0.00in /  0mm 0 W/m2
23:44 20.3 °F /  -6.5 °C 17.8 °F /  -7.9 °C 30.21in /  1022.9hPa NNW 1.0mph /  1.6km/h 1.0mph /  1.6km/h 90% 0.00in /  0mm 0 W/m2
23:50 20.5 °F /  -6.4 °C 18.3 °F /  -7.6 °C 30.22in /  1023.2hPa NW 1.0mph /  1.6km/h 2.0mph /  3.2km/h 91% 0.00in /  0mm 0 W/m2
23:56 20.6 °F /  -6.3 °C 18.4 °F /  -7.6 °C 30.22in /  1023.2hPa NW 1.0mph /  1.6km/h 2.0mph /  3.2km/h 91% 0.00in /  0mm 0 W/m2
Country Meadow, Clay, NY, USA
Compliments of Weather Underground - 2 mb